Miguel Oliver — ECLX — position and weather

sailwx.info

Track history (hours):
 
Tides and Currents Weather Stations Pressure Air Temp Water Temp Dewpoint Dewpoint Depression Visibility Wind Speed Wind Dir Waves Ship Positions

Oceanographic research ship Miguel Oliver (Spain)

Ship's website: http://www.mapa.es/es/pesca/pags/miguel_web/index.htm

Last reported at 2016-Apr-22 17:28 UTC. Time now 2016-May-06 18:43 UTC.
Position N 36°04' W 005°11'.
Warning: this ship's position is 14 days out of date.

Length 70 m; draft 4.8 m.

Type: Other ship. MMSI: 225322000.

Date/timePositionNaut miles runAvg speedWind from/ knotsBaromVisibWave heightAir tempDewpointWater temp
2016-Apr-22 17:28N 36°04' W 005°11'1213.1
2016-Apr-22 16:33N 35°58' W 005°24'256 9.5
2016-Apr-21 13:27N 38°14' W 009°57'1010.9
2016-Apr-21 12:33N 38°23' W 010°00'1111.1
2016-Apr-21 11:33N 38°34' W 010°03'1110.7
2016-Apr-21 10:33N 38°45' W 010°06'1110.7
2016-Apr-21 09:32N 38°55' W 010°05'1010.5
2016-Apr-21 08:33N 39°06' W 010°01'1010.4
2016-Apr-21 07:33N 39°16' W 009°58'  
2016-Apr-16 18:33N 43°43' W 005°60'1110.7
2016-Apr-16 17:33N 43°41' W 005°45'1210.7
2016-Apr-16 16:28N 43°40' W 005°29'1010.8
2016-Apr-16 15:32N 43°39' W 005°15'142 3.3
2016-Apr-14 20:33N 43°39' W 001°59'11 1.3
2016-Apr-14 12:29N 43°29' W 001°52'3 3.6
2016-Apr-14 11:33N 43°29' W 001°48'5 5.0
2016-Apr-14 10:33N 43°24' W 001°48'6 6.2
2016-Apr-14 09:32N 43°31' W 001°48'1 0.8
2016-Apr-14 08:33N 43°31' W 001°48'2 2.1
2016-Apr-14 07:33N 43°34' W 001°48'1 1.3
2016-Apr-14 06:29N 43°35' W 001°48'5 5.4
2016-Apr-14 05:33N 43°40' W 001°49'14 4.6
2016-Apr-14 02:31N 43°43' W 002°08'8 7.7
2016-Apr-14 01:32N 43°43' W 002°18'3 2.5
2016-Apr-14 00:30N 43°43' W 002°22'26 3.7
2016-Apr-13 17:31N 43°20' W 002°05'11 7.9
2016-Apr-13 16:11N 43°30' W 001°59'6 9.7
2016-Apr-13 15:33N 43°36' W 001°58'7 7.1
2016-Apr-13 14:30N 43°36' W 002°09'  
Track history (hours):
 
Tides and Currents Weather Stations Pressure Air Temp Water Temp Dewpoint Dewpoint Depression Visibility Wind Speed Wind Dir Waves Ship Positions

Oceanographic research ship Miguel Oliver (Spain)

Ship's website: http://www.mapa.es/es/pesca/pags/miguel_web/index.htm

Last reported at 2016-Apr-22 17:28 UTC. Time now 2016-May-06 18:43 UTC.
Position N 36°04' W 005°11'.
Warning: this ship's position is 14 days out of date.

Length 70 m; draft 4.8 m.

Type: Other ship. MMSI: 225322000.

Date/timePositionNaut miles runAvg speedWind from/ knotsBaromVisibWave heightAir tempDewpointWater temp
2016-Apr-22 17:28N 36°04' W 005°11'1213.1
2016-Apr-22 16:33N 35°58' W 005°24'256 9.5
2016-Apr-21 13:27N 38°14' W 009°57'1010.9
2016-Apr-21 12:33N 38°23' W 010°00'1111.1
2016-Apr-21 11:33N 38°34' W 010°03'1110.7
2016-Apr-21 10:33N 38°45' W 010°06'1110.7
2016-Apr-21 09:32N 38°55' W 010°05'1010.5
2016-Apr-21 08:33N 39°06' W 010°01'1010.4
2016-Apr-21 07:33N 39°16' W 009°58'  
2016-Apr-16 18:33N 43°43' W 005°60'1110.7
2016-Apr-16 17:33N 43°41' W 005°45'1210.7
2016-Apr-16 16:28N 43°40' W 005°29'1010.8
2016-Apr-16 15:32N 43°39' W 005°15'142 3.3
2016-Apr-14 20:33N 43°39' W 001°59'11 1.3
2016-Apr-14 12:29N 43°29' W 001°52'3 3.6
2016-Apr-14 11:33N 43°29' W 001°48'5 5.0
2016-Apr-14 10:33N 43°24' W 001°48'6 6.2
2016-Apr-14 09:32N 43°31' W 001°48'1 0.8
2016-Apr-14 08:33N 43°31' W 001°48'2 2.1
2016-Apr-14 07:33N 43°34' W 001°48'1 1.3
2016-Apr-14 06:29N 43°35' W 001°48'5 5.4
2016-Apr-14 05:33N 43°40' W 001°49'14 4.6
2016-Apr-14 02:31N 43°43' W 002°08'8 7.7
2016-Apr-14 01:32N 43°43' W 002°18'3 2.5
2016-Apr-14 00:30N 43°43' W 002°22'26 3.7
2016-Apr-13 17:31N 43°20' W 002°05'11 7.9
2016-Apr-13 16:11N 43°30' W 001°59'6 9.7
2016-Apr-13 15:33N 43°36' W 001°58'7 7.1
2016-Apr-13 14:30N 43°36' W 002°09'  

Dump ship's entire track history